Time;durP1;ratioP1;P1;durP2;ratioP2;P2;SDS_P1;SDS_P2;PMS_P1;PMS_P2;Temp;Humidity;BMP_temperature;BMP_pressure;BME280_temperature;BME280_humidity;BME280_pressure;Samples;Min_cycle;Max_cycle;Signal;HPM_P1;HPM_P2
2023/12/11 00:01:16;;;;;;;2.00;1.90;;;;;;;1.57;93.70;99282.06;5115694;28;20466;-76
2023/12/11 00:03:45;;;;;;;2.90;2.70;;;;;;;1.58;93.83;99283.78;5115441;28;20402;-74
2023/12/11 00:06:14;;;;;;;4.30;2.90;;;;;;;1.57;92.98;99279.56;5116819;28;20493;-74
2023/12/11 00:08:43;;;;;;;3.45;3.15;;;;;;;1.49;93.77;99276.00;5115830;28;20081;-74
2023/12/11 00:11:13;;;;;;;6.28;5.05;;;;;;;1.57;93.10;99284.59;5117020;28;20048;-74
2023/12/11 00:13:42;;;;;;;3.47;3.17;;;;;;;1.50;93.48;99277.69;5116905;28;20055;-74
2023/12/11 00:16:11;;;;;;;7.13;4.50;;;;;;;1.55;93.61;99276.16;5115678;28;20110;-74
2023/12/11 00:18:40;;;;;;;11.20;6.20;;;;;;;1.51;93.63;99269.34;5115668;28;20280;-74
2023/12/11 00:21:09;;;;;;;18.63;3.45;;;;;;;1.50;92.92;99282.72;5098721;28;20170;-74
2023/12/11 00:23:38;;;;;;;6.10;2.50;;;;;;;1.50;93.25;99277.69;5116712;28;20036;-75
2023/12/11 00:26:07;;;;;;;2.80;2.60;;;;;;;1.44;93.41;99277.53;5116684;28;20298;-73
2023/12/11 00:28:37;;;;;;;8.20;3.23;;;;;;;1.42;93.31;99284.19;5116668;27;20036;-73
2023/12/11 00:31:07;;;;;;;10.27;3.53;;;;;;;1.44;93.72;99280.03;5116141;28;20139;-74
2023/12/11 00:33:41;;;;;;;6.22;2.92;;;;;;;1.40;93.90;99265.66;5115128;28;20142;-74
2023/12/11 00:36:11;;;;;;;4.00;3.70;;;;;;;1.45;93.76;99270.00;5115198;28;20126;-76
2023/12/11 00:38:40;;;;;;;4.55;3.22;;;;;;;1.45;94.18;99270.00;5116482;28;20043;-76
2023/12/11 00:41:09;;;;;;;4.07;3.10;;;;;;;1.46;94.29;99256.66;5114795;28;20043;-76
2023/12/11 00:43:41;;;;;;;0.90;0.90;;;;;;;1.49;94.17;99240.81;5116663;28;20143;-76
2023/12/11 00:46:15;;;;;;;3.90;3.60;;;;;;;1.51;93.59;99239.19;5116293;28;20082;-74
2023/12/11 00:48:43;;;;;;;;;;;;;;;1.52;94.21;99240.84;5117016;28;20130;-73
2023/12/11 00:51:17;;;;;;;3.63;3.10;;;;;;;1.36;93.65;99209.44;5114541;28;20311;-74
2023/12/11 00:53:46;;;;;;;7.10;6.43;;;;;;;1.41;94.05;99222.13;5115145;28;20046;-73
2023/12/11 00:56:16;;;;;;;1.63;1.52;;;;;;;1.43;93.51;99220.50;5114848;28;20100;-74
2023/12/11 00:58:47;;;;;;;4.07;1.98;;;;;;;1.43;93.64;99215.47;5098004;28;20139;-73
2023/12/11 01:01:16;;;;;;;6.10;3.50;;;;;;;1.34;93.62;99190.94;5116005;28;20066;-73
2023/12/11 01:03:45;;;;;;;5.15;2.03;;;;;;;1.34;93.92;99179.22;5097977;28;20050;-73
2023/12/11 01:06:14;;;;;;;;;;;;;;;1.43;93.72;99187.81;5098414;28;20464;-74
2023/12/11 01:08:43;;;;;;;2.83;2.63;;;;;;;1.45;94.45;99199.63;5114724;28;19951;-74
2023/12/11 01:11:12;;;;;;;4.55;3.53;;;;;;;1.42;94.02;99181.94;5097446;28;20036;-73
2023/12/11 01:13:41;;;;;;;2.10;1.93;;;;;;;1.48;93.77;99191.31;5114391;28;20469;-73
2023/12/11 01:16:11;;;;;;;5.40;2.40;;;;;;;1.46;94.26;99182.88;5115703;28;20046;-76
2023/12/11 01:18:40;;;;;;;2.28;2.17;;;;;;;1.45;93.76;99181.16;5114564;28;20052;-77
2023/12/11 01:21:09;;;;;;;0.93;0.93;;;;;;;1.45;93.90;99183.69;5115270;28;20032;-77
2023/12/11 01:23:38;;;;;;;2.45;2.28;;;;;;;1.45;94.14;99181.16;5115935;28;20043;-77
2023/12/11 01:26:07;;;;;;;2.43;2.23;;;;;;;1.47;93.88;99166.97;5115709;28;20096;-75
2023/12/11 01:28:36;;;;;;;9.35;4.07;;;;;;;1.46;94.46;99155.22;5115137;28;20829;-74
2023/12/11 01:31:05;;;;;;;11.43;3.13;;;;;;;1.40;93.83;99140.84;5114873;28;20056;-74
2023/12/11 01:33:36;;;;;;;;;;;;;;;1.39;94.44;99138.28;5115487;28;20055;-74
2023/12/11 01:36:06;;;;;;;4.47;3.13;;;;;;;1.31;94.05;99110.44;5113919;28;19927;-76
2023/12/11 01:38:35;;;;;;;10.02;3.33;;;;;;;1.33;94.06;99129.78;5115587;28;20142;-76
2023/12/11 01:41:03;;;;;;;3.03;2.78;;;;;;;1.31;94.27;99123.84;5113947;28;20135;-76
2023/12/11 01:43:32;;;;;;;2.42;2.25;;;;;;;1.16;93.84;99092.44;5113971;28;20048;-76
2023/12/11 01:46:05;;;;;;;1.70;1.52;;;;;;;1.29;94.33;99122.97;5115201;28;20134;-77
2023/12/11 01:48:37;;;;;;;5.47;3.35;;;;;;;0.66;94.34;99015.72;5114904;28;20066;-74
2023/12/11 01:51:09;;;;;;;5.50;4.13;;;;;;;1.22;94.30;99106.00;5113054;28;20538;-74
2023/12/11 01:53:39;;;;;;;2.88;2.67;;;;;;;1.20;94.38;99100.09;5113713;28;20485;-74
2023/12/11 01:56:09;;;;;;;3.72;2.97;;;;;;;1.18;94.41;99099.19;5115045;28;20044;-74
2023/12/11 01:58:38;;;;;;;2.28;2.08;;;;;;;1.19;94.47;99105.94;5114506;28;20051;-74
2023/12/11 02:01:09;;;;;;;1.95;1.85;;;;;;;1.17;94.84;99101.69;5113545;28;20055;-74
2023/12/11 02:03:42;;;;;;;2.85;2.15;;;;;;;1.06;94.04;99078.78;5114887;28;20047;-74
2023/12/11 02:06:11;;;;;;;3.53;3.22;;;;;;;1.15;94.07;99099.09;5114759;28;20551;-74
2023/12/11 02:08:40;;;;;;;2.40;2.20;;;;;;;0.99;94.70;99071.03;5114698;28;20494;-77
2023/12/11 02:11:09;;;;;;;1.45;1.35;;;;;;;1.15;94.73;99104.13;5096257;28;20404;-77
2023/12/11 02:13:40;;;;;;;0.93;0.93;;;;;;;1.18;94.70;99099.19;5114701;28;20031;-77
2023/12/11 02:16:16;;;;;;;1.80;1.70;;;;;;;1.20;94.47;99102.59;5114352;28;20486;-77
2023/12/11 02:18:46;;;;;;;4.38;3.80;;;;;;;1.18;94.61;99106.75;5114598;28;20079;-74
2023/12/11 02:21:15;;;;;;;2.78;1.80;;;;;;;1.14;94.33;99084.00;5114591;28;20481;-74
2023/12/11 02:23:51;;;;;;;1.02;1.02;;;;;;;1.01;94.19;99051.84;5114310;28;20065;-74
2023/12/11 02:26:23;;;;;;;4.22;3.80;;;;;;;1.25;94.12;99085.97;5095531;28;20089;-74
2023/12/11 02:28:52;;;;;;;3.63;1.88;;;;;;;1.22;94.33;99072.50;5113832;28;20051;-77
2023/12/11 02:31:20;;;;;;;3.40;2.20;;;;;;;1.28;93.93;99065.97;5114112;28;20050;-78
2023/12/11 02:33:49;;;;;;;4.38;3.92;;;;;;;1.32;93.97;99067.75;5114362;28;20275;-78
2023/12/11 02:36:18;;;;;;;6.05;4.60;;;;;;;1.33;94.37;99054.38;5114401;28;20088;-78
2023/12/11 02:38:47;;;;;;;3.05;2.85;;;;;;;1.34;94.49;99063.59;5114401;28;20049;-76
2023/12/11 02:41:16;;;;;;;4.90;3.33;;;;;;;1.31;94.32;99060.16;5113001;28;20101;-75
2023/12/11 02:43:47;;;;;;;2.45;2.35;;;;;;;1.29;94.30;99072.72;5096050;28;20291;-75
2023/12/11 02:46:16;;;;;;;2.15;1.95;;;;;;;1.31;94.10;99096.22;5096040;28;20063;-74
2023/12/11 02:48:45;;;;;;;1.60;1.50;;;;;;;1.34;94.75;99108.00;5114224;28;20050;-77
2023/12/11 02:51:16;;;;;;;5.88;2.15;;;;;;;1.37;95.04;99089.66;5114066;28;20306;-78
2023/12/11 02:53:45;;;;;;;2.78;2.40;;;;;;;1.34;94.80;99061.09;5114245;28;20051;-78
2023/12/11 02:56:14;;;;;;;;;;;;;;;1.32;94.83;99079.44;5080475;28;20229;-78
2023/12/11 02:58:44;;;;;;;4.53;2.65;;;;;;;1.32;94.85;99092.88;5114160;28;19927;-78
2023/12/11 03:01:15;;;;;;;;;;;;;;;1.36;94.84;99113.91;5114512;28;20047;-76
2023/12/11 03:03:44;;;;;;;0.75;0.75;;;;;;;1.37;94.84;99109.75;5116402;28;20006;-76
2023/12/11 03:06:18;;;;;;;1.05;0.98;;;;;;;1.23;94.75;99070.03;5118323;28;20038;-77
2023/12/11 03:08:47;;;;;;;3.72;3.38;;;;;;;1.41;95.00;99112.38;5117930;28;20048;-75
2023/12/11 03:11:16;;;;;;;3.72;3.38;;;;;;;1.39;94.66;99113.16;5117874;28;20042;-77
2023/12/11 03:13:45;;;;;;;0.80;0.80;;;;;;;1.44;94.75;99126.69;5117906;28;20454;-78
2023/12/11 03:16:17;;;;;;;6.90;4.57;;;;;;;1.44;94.60;99131.72;5117093;28;20159;-78
2023/12/11 03:18:47;;;;;;;2.08;1.95;;;;;;;1.37;95.05;99117.28;5118074;28;20048;-78
2023/12/11 03:21:16;;;;;;;3.92;3.22;;;;;;;1.43;94.79;99122.47;5117715;28;20089;-75
2023/12/11 03:23:45;;;;;;;2.80;2.60;;;;;;;1.37;94.73;99100.53;5117907;28;20040;-78
2023/12/11 03:26:14;;;;;;;1.80;1.67;;;;;;;1.43;95.03;99092.31;5117568;28;20044;-77
2023/12/11 03:28:42;;;;;;;0.67;0.67;;;;;;;1.41;94.66;99054.56;5117831;28;20063;-77
2023/12/11 03:31:11;;;;;;;3.35;2.78;;;;;;;1.43;94.75;99040.38;5116129;28;20046;-76
2023/12/11 03:33:42;;;;;;;1.98;1.85;;;;;;;1.41;94.88;99024.41;5117993;27;20481;-76
2023/12/11 03:36:11;;;;;;;3.92;3.47;;;;;;;1.28;94.40;98999.78;5117954;28;20054;-76
2023/12/11 03:38:40;;;;;;;2.75;1.35;;;;;;;1.32;94.09;99004.91;5115966;28;20374;-79
2023/12/11 03:41:09;;;;;;;1.70;1.60;;;;;;;1.32;94.33;99014.97;5117544;28;20035;-78
2023/12/11 03:43:38;;;;;;;3.20;2.70;;;;;;;1.37;94.26;99041.88;5099296;28;20073;-77
2023/12/11 03:46:06;;;;;;;2.43;2.23;;;;;;;1.42;94.04;99055.44;5117211;28;20284;-77
2023/12/11 03:48:36;;;;;;;;;;;;;;;1.47;94.46;99063.91;5117852;28;20325;-76
2023/12/11 03:51:07;;;;;;;2.75;1.95;;;;;;;1.47;94.99;99069.78;5116836;28;19919;-76
2023/12/11 03:53:35;;;;;;;2.40;2.20;;;;;;;1.47;94.10;99066.41;5117127;28;20062;-76
2023/12/11 03:56:05;;;;;;;9.33;2.93;;;;;;;1.47;94.69;99086.53;5116163;28;20135;-76
2023/12/11 03:58:34;;;;;;;2.55;2.35;;;;;;;1.42;94.21;99073.84;5115779;28;20815;-78
2023/12/11 04:01:04;;;;;;;4.13;3.78;;;;;;;1.10;94.44;99052.09;5116867;28;20047;-78
2023/12/11 04:03:33;;;;;;;;;;;;;;;1.44;94.91;99112.44;5117616;28;20044;-79
2023/12/11 04:06:02;;;;;;;2.97;2.78;;;;;;;1.45;94.19;99118.31;5116850;28;19919;-78
2023/12/11 04:08:32;;;;;;;3.08;2.88;;;;;;;1.47;94.26;99111.66;5117018;28;20035;-78
2023/12/11 04:11:01;;;;;;;6.13;4.43;;;;;;;1.38;95.31;99101.38;5116768;28;20493;-78
2023/12/11 04:13:30;;;;;;;1.92;1.83;;;;;;;1.56;95.02;99111.94;5115633;28;20075;-75
2023/12/11 04:15:59;;;;;;;1.65;1.55;;;;;;;1.60;95.39;99111.19;5116048;28;20493;-75
2023/12/11 04:18:28;;;;;;;1.60;1.50;;;;;;;1.40;94.48;99065.41;5116814;28;20050;-75
2023/12/11 04:20:57;;;;;;;2.45;2.25;;;;;;;1.60;94.86;99096.97;5098595;28;20154;-75
2023/12/11 04:23:26;;;;;;;8.95;3.47;;;;;;;1.41;94.89;99061.25;5116369;28;20119;-78
2023/12/11 04:25:58;;;;;;;7.05;2.28;;;;;;;1.64;94.44;99100.38;5117027;28;20087;-78
2023/12/11 04:28:28;;;;;;;1.92;1.83;;;;;;;1.66;94.74;99108.81;5116718;28;20502;-78
2023/12/11 04:30:57;;;;;;;2.03;1.92;;;;;;;1.68;94.41;99102.19;5115002;28;20044;-78
2023/12/11 04:33:26;;;;;;;1.50;1.40;;;;;;;1.66;94.47;99083.66;5115071;28;20037;-76
2023/12/11 04:35:55;;;;;;;1.65;1.55;;;;;;;1.69;94.94;99099.69;5116551;28;20043;-76
2023/12/11 04:38:25;;;;;;;4.15;1.45;;;;;;;1.69;94.83;99106.38;5115326;28;20040;-76
2023/12/11 04:40:54;;;;;;;2.40;2.20;;;;;;;1.79;94.55;99141.00;5114929;28;20039;-75
2023/12/11 04:43:25;;;;;;;1.85;1.75;;;;;;;1.67;94.71;99130.63;5098180;28;20071;-75
2023/12/11 04:45:58;;;;;;;0.95;0.95;;;;;;;1.83;94.60;99137.75;5114641;28;20147;-75
2023/12/11 04:48:27;;;;;;;1.75;1.65;;;;;;;1.83;94.89;99142.78;5116050;28;20044;-75
2023/12/11 04:50:56;;;;;;;0.80;0.80;;;;;;;1.84;95.18;99139.47;5115851;28;20074;-75
2023/12/11 04:53:25;;;;;;;2.08;1.67;;;;;;;1.82;95.22;99138.56;5115868;28;20042;-78
2023/12/11 04:55:54;;;;;;;1.20;1.13;;;;;;;1.78;94.47;99135.13;5116149;28;20046;-77
2023/12/11 04:58:23;;;;;;;3.08;2.88;;;;;;;1.76;94.99;99120.81;5116384;28;20050;-77
2023/12/11 05:00:53;;;;;;;1.85;1.75;;;;;;;1.68;94.69;99107.22;5116085;28;20032;-77
2023/12/11 05:03:22;;;;;;;3.05;2.42;;;;;;;1.67;94.29;99095.44;5116058;28;20044;-77
2023/12/11 05:05:51;;;;;;;5.53;4.07;;;;;;;1.48;94.60;99053.06;5115591;28;20047;-77
2023/12/11 05:08:20;;;;;;;2.85;2.63;;;;;;;1.64;95.06;99045.91;5115976;28;20503;-77
2023/12/11 05:10:49;;;;;;;4.03;3.70;;;;;;;1.60;94.87;98993.88;5115891;28;20040;-77
2023/12/11 05:13:18;;;;;;;1.47;1.23;;;;;;;1.53;94.11;99021.34;5115572;28;20040;-76
2023/12/11 05:15:46;;;;;;;0.73;0.73;;;;;;;1.52;94.39;99077.44;5115815;28;20382;-76
2023/12/11 05:18:17;;;;;;;2.60;2.40;;;;;;;1.52;94.44;99090.00;5115752;28;20135;-76
2023/12/11 05:20:46;;;;;;;16.77;3.75;;;;;;;1.51;94.96;99073.25;5114454;28;20043;-76
2023/12/11 05:23:15;;;;;;;1.30;1.20;;;;;;;1.51;93.98;99058.16;5115626;28;20116;-75
2023/12/11 05:25:44;;;;;;;2.47;2.03;;;;;;;1.49;94.57;99029.63;5115336;28;20390;-76
2023/12/11 05:28:14;;;;;;;1.90;1.80;;;;;;;1.48;94.40;98991.06;5114227;28;20050;-76
2023/12/11 05:30:43;;;;;;;4.55;3.20;;;;;;;1.46;94.96;98961.66;5114840;28;20054;-76
2023/12/11 05:33:12;;;;;;;2.40;2.20;;;;;;;1.47;94.05;98960.84;5096259;28;20046;-76
2023/12/11 05:35:43;;;;;;;3.55;3.25;;;;;;;1.47;94.00;98955.81;5115302;28;20036;-76
2023/12/11 05:38:11;;;;;;;2.92;2.60;;;;;;;1.46;94.42;98969.22;5115466;28;20051;-75
2023/12/11 05:40:40;;;;;;;3.22;2.88;;;;;;;1.50;95.03;98991.09;5115298;28;20043;-76
2023/12/11 05:43:09;;;;;;;4.25;2.47;;;;;;;1.51;94.93;99002.84;5115413;27;20389;-76
2023/12/11 05:45:38;;;;;;;8.45;6.18;;;;;;;1.54;94.49;99012.97;5113750;28;20043;-76
2023/12/11 05:48:08;;;;;;;5.22;3.95;;;;;;;1.52;94.02;99017.09;5114864;28;20035;-76
2023/12/11 05:50:37;;;;;;;4.80;4.38;;;;;;;1.57;95.14;99025.63;5113747;28;20138;-76
2023/12/11 05:53:10;;;;;;;7.78;4.00;;;;;;;1.57;94.97;99031.50;5113585;28;20051;-76
2023/12/11 05:55:39;;;;;;;2.78;2.58;;;;;;;1.55;94.70;99035.66;5114574;28;20501;-76
2023/12/11 05:58:08;;;;;;;4.90;4.50;;;;;;;1.58;94.40;99044.94;5114897;28;20035;-75
2023/12/11 06:00:37;;;;;;;2.88;2.60;;;;;;;1.60;94.50;99046.66;5114911;28;20272;-76
2023/12/11 06:03:06;;;;;;;4.60;3.20;;;;;;;1.60;94.41;99038.25;5114876;28;20039;-75
2023/12/11 06:05:35;;;;;;;5.18;4.72;;;;;;;1.59;94.77;99042.44;5114960;28;20356;-76
2023/12/11 06:08:05;;;;;;;12.47;2.63;;;;;;;1.64;95.06;99045.91;5114641;28;20062;-73
2023/12/11 06:10:35;;;;;;;3.53;3.25;;;;;;;1.64;94.83;99032.47;5114688;28;20081;-73
2023/12/11 06:13:04;;;;;;;2.90;2.58;;;;;;;1.69;94.53;99053.56;5114458;28;20031;-73
2023/12/11 06:15:33;;;;;;;1.70;1.60;;;;;;;1.70;95.06;99070.38;5113193;28;20151;-75
2023/12/11 06:18:02;;;;;;;;;;;;;;;1.74;95.26;99069.63;5114946;28;20272;-76
2023/12/11 06:20:31;;;;;;;1.65;1.55;;;;;;;1.76;94.90;99076.38;5113301;28;19919;-75
2023/12/11 06:23:00;;;;;;;1.33;1.23;;;;;;;1.69;95.00;99063.63;5114810;28;20498;-76
2023/12/11 06:25:29;;;;;;;2.27;2.07;;;;;;;1.80;95.25;99075.63;5113184;28;20537;-76
2023/12/11 06:28:00;;;;;;;4.10;2.20;;;;;;;1.80;95.43;99084.88;5114431;28;20045;-76
2023/12/11 06:30:29;;;;;;;4.32;1.33;;;;;;;1.78;95.52;99073.91;5114164;28;20047;-76
2023/12/11 06:32:59;;;;;;;3.33;1.80;;;;;;;1.71;95.10;99072.06;5114474;28;20028;-73
2023/12/11 06:35:28;;;;;;;1.95;1.73;;;;;;;1.61;95.37;99065.13;5115169;28;20067;-73
2023/12/11 06:37:56;;;;;;;1.43;1.33;;;;;;;1.60;94.99;99058.38;5112388;28;20039;-73
2023/12/11 06:40:25;;;;;;;1.60;1.50;;;;;;;1.56;94.74;99061.66;5114354;28;20294;-73
2023/12/11 06:42:54;;;;;;;2.72;1.75;;;;;;;1.57;94.85;99076.75;5112912;28;20047;-73
2023/12/11 06:45:24;;;;;;;2.87;2.20;;;;;;;1.56;94.71;99076.72;5113906;28;20040;-73
2023/12/11 06:47:53;;;;;;;1.13;1.05;;;;;;;1.60;95.01;99083.53;5114463;28;20748;-76
2023/12/11 06:50:22;;;;;;;5.93;2.70;;;;;;;1.65;95.75;99079.47;5114124;28;20397;-76
2023/12/11 06:52:51;;;;;;;4.13;1.87;;;;;;;1.68;95.54;99079.53;5112492;28;20036;-76
2023/12/11 06:55:20;;;;;;;3.67;2.65;;;;;;;1.70;94.69;99070.38;5113388;28;20330;-76
2023/12/11 06:57:49;;;;;;;2.92;2.53;;;;;;;1.73;95.17;99085.50;5112713;28;20059;-76
2023/12/11 07:00:19;;;;;;;1.60;1.50;;;;;;;1.78;94.87;99081.44;5114153;28;20043;-76
2023/12/11 07:02:50;;;;;;;1.88;1.77;;;;;;;1.81;95.39;99099.13;5114041;28;20135;-76
2023/12/11 07:05:19;;;;;;;4.40;3.58;;;;;;;1.81;94.86;99094.97;5114085;28;20051;-74
2023/12/11 07:07:48;;;;;;;2.47;2.17;;;;;;;1.84;94.80;99091.66;5112434;28;20040;-74
2023/12/11 07:10:17;;;;;;;4.37;1.90;;;;;;;1.90;95.89;99086.78;5113922;28;20112;-74
2023/12/11 07:12:47;;;;;;;4.60;2.70;;;;;;;1.92;95.59;99082.66;5112599;28;20044;-74
2023/12/11 07:15:16;;;;;;;5.47;4.03;;;;;;;1.98;95.67;99092.84;5114001;28;20287;-74
2023/12/11 07:17:45;;;;;;;1.27;1.20;;;;;;;2.01;96.02;99077.81;5113544;28;20044;-73
2023/12/11 07:20:16;;;;;;;3.28;2.63;;;;;;;2.05;95.51;99069.53;5112477;28;20036;-74
2023/12/11 07:22:47;;;;;;;1.27;1.08;;;;;;;2.06;95.42;99071.25;5113899;28;20130;-74
2023/12/11 07:25:16;;;;;;;2.05;1.92;;;;;;;2.09;94.91;99068.78;5113574;28;20059;-73
2023/12/11 07:27:45;;;;;;;0.73;0.73;;;;;;;2.12;95.03;99061.28;5112557;28;20093;-73
2023/12/11 07:30:15;;;;;;;1.57;1.47;;;;;;;2.13;95.72;99060.50;5113477;28;20122;-74
2023/12/11 07:32:44;;;;;;;4.82;2.60;;;;;;;2.17;95.45;99059.72;5112052;28;20096;-73
2023/12/11 07:35:15;;;;;;;0.37;0.37;;;;;;;2.18;94.90;99071.53;5113730;28;20035;-73
2023/12/11 07:37:44;;;;;;;2.60;1.83;;;;;;;2.18;95.35;99071.53;5112448;28;20792;-75
2023/12/11 07:40:14;;;;;;;5.13;1.40;;;;;;;2.17;95.49;99062.25;5112520;28;20409;-74
2023/12/11 07:42:42;;;;;;;2.33;2.15;;;;;;;2.24;95.45;99061.56;5095842;28;20039;-74
2023/12/11 07:45:12;;;;;;;2.30;2.10;;;;;;;2.26;95.70;99039.78;5113630;28;20035;-74
2023/12/11 07:47:41;;;;;;;2.78;2.58;;;;;;;2.29;95.56;99027.28;5095480;28;20405;-74
2023/12/11 07:50:10;;;;;;;3.58;2.63;;;;;;;2.38;95.51;99029.97;5114904;28;20040;-74
2023/12/11 07:52:41;;;;;;;1.05;1.02;;;;;;;2.46;95.51;99038.56;5116257;28;20045;-76
2023/12/11 07:55:10;;;;;;;1.63;1.52;;;;;;;2.57;95.85;99039.63;5116901;28;20061;-76
2023/12/11 07:57:40;;;;;;;0.50;0.50;;;;;;;2.60;95.21;99032.13;5117210;28;20042;-74
2023/12/11 08:00:10;;;;;;;1.20;1.15;;;;;;;2.68;96.04;99035.66;5116980;28;20508;-75
2023/12/11 08:02:39;;;;;;;;;;;;;;;2.76;95.58;99037.47;5117599;28;20051;-76
2023/12/11 08:05:09;;;;;;;2.65;2.45;;;;;;;2.69;95.46;99027.28;5116858;28;19920;-75
2023/12/11 08:07:40;;;;;;;3.08;2.88;;;;;;;2.70;95.10;99033.16;5117417;28;20089;-77
2023/12/11 08:10:10;;;;;;;3.25;1.17;;;;;;;2.63;95.04;99027.16;5116787;28;20515;-74
2023/12/11 08:12:39;;;;;;;1.33;1.23;;;;;;;2.59;95.34;99030.41;5116786;28;20163;-75
2023/12/11 08:15:09;;;;;;;2.83;2.50;;;;;;;2.57;95.01;99021.13;5116695;28;20394;-75
2023/12/11 08:17:38;;;;;;;2.42;2.25;;;;;;;2.61;94.75;99033.84;5116791;28;20135;-75
2023/12/11 08:20:09;;;;;;;3.38;3.08;;;;;;;2.55;94.72;99017.75;5115406;28;20069;-74
2023/12/11 08:22:42;;;;;;;2.90;2.70;;;;;;;2.54;94.34;99021.91;5115590;28;20471;-74
2023/12/11 08:25:13;;;;;;;2.88;2.67;;;;;;;2.45;94.62;99014.19;5116702;28;20052;-77
2023/12/11 08:27:43;;;;;;;3.30;3.08;;;;;;;2.58;94.65;99027.88;5116464;28;20489;-74
2023/12/11 08:30:12;;;;;;;4.80;3.97;;;;;;;2.56;94.72;99012.75;5116262;28;20047;-76
2023/12/11 08:32:41;;;;;;;4.40;2.83;;;;;;;2.61;94.32;99022.91;5116526;28;20061;-77
2023/12/11 08:35:10;;;;;;;3.40;2.60;;;;;;;2.64;94.87;99022.94;5116451;28;20481;-77
2023/12/11 08:37:39;;;;;;;2.50;2.00;;;;;;;2.61;94.69;99008.66;5116463;28;20048;-74
2023/12/11 08:40:10;;;;;;;2.93;2.57;;;;;;;2.75;94.84;99016.47;5116216;28;20119;-75
2023/12/11 08:42:40;;;;;;;3.88;3.47;;;;;;;2.83;94.30;99014.09;5116067;28;20052;-77
2023/12/11 08:45:10;;;;;;;3.08;2.42;;;;;;;2.90;94.57;99005.84;5116025;28;20048;-77
2023/12/11 08:47:41;;;;;;;3.95;3.20;;;;;;;2.99;94.40;99006.00;5116329;28;20088;-78
2023/12/11 08:50:12;;;;;;;4.90;2.28;;;;;;;2.98;94.79;99002.63;5115272;28;20393;-77
2023/12/11 08:52:44;;;;;;;2.72;2.53;;;;;;;3.11;94.26;99026.38;5116228;28;20096;-77
2023/12/11 08:55:14;;;;;;;4.00;3.60;;;;;;;3.18;94.01;99023.16;5116079;28;20039;-75
2023/12/11 08:57:44;;;;;;;2.38;2.17;;;;;;;3.22;94.82;99014.81;5116195;28;20048;-77
2023/12/11 09:00:14;;;;;;;2.85;2.55;;;;;;;3.28;94.32;99010.75;5116458;28;20063;-77
2023/12/11 09:02:43;;;;;;;5.35;2.85;;;;;;;3.35;94.45;99012.53;5115566;28;20089;-77
2023/12/11 09:05:14;;;;;;;2.42;2.20;;;;;;;3.40;94.32;99015.13;5114664;28;20511;-75
2023/12/11 09:07:43;;;;;;;2.60;2.40;;;;;;;3.29;94.46;98986.34;5115573;28;20044;-74
2023/12/11 09:10:12;;;;;;;1.70;1.60;;;;;;;3.49;94.43;99000.16;5115803;27;20644;-77
2023/12/11 09:12:42;;;;;;;20.23;4.60;;;;;;;3.39;94.35;98968.91;5115801;28;20272;-76
2023/12/11 09:15:11;;;;;;;27.70;2.72;;;;;;;3.50;94.17;98991.78;5115608;28;20040;-77
2023/12/11 09:17:40;;;;;;;0.77;0.77;;;;;;;3.56;94.11;98999.44;5114458;28;20047;-75
2023/12/11 09:20:09;;;;;;;1.52;1.42;;;;;;;3.56;94.31;98996.03;5115689;28;20039;-76
2023/12/11 09:22:41;;;;;;;2.33;1.98;;;;;;;3.51;93.98;98993.47;5114365;28;20046;-75
2023/12/11 09:25:10;;;;;;;2.10;1.90;;;;;;;3.52;93.51;99007.78;5115409;28;20485;-74
2023/12/11 09:27:39;;;;;;;1.33;1.23;;;;;;;3.53;93.89;99006.09;5115641;28;20035;-78
2023/12/11 09:30:11;;;;;;;3.20;2.67;;;;;;;3.49;93.92;99000.16;5108087;28;20120;-78
2023/12/11 09:32:40;;;;;;;1.63;1.52;;;;;;;3.46;93.98;98984.97;5102725;28;20043;-76
2023/12/11 09:35:10;;;;;;;1.20;1.15;;;;;;;3.51;93.79;98985.03;5103301;28;20040;-75
2023/12/11 09:37:39;;;;;;;1.52;1.42;;;;;;;3.58;93.60;98984.31;5102291;28;20100;-77
2023/12/11 09:40:10;;;;;;;0.60;0.60;;;;;;;3.63;93.16;98983.56;5104029;28;20385;-76
2023/12/11 09:42:41;;;;;;;0.60;0.60;;;;;;;3.69;93.20;98982.81;5108008;28;20500;-75
2023/12/11 09:45:13;;;;;;;1.13;1.13;;;;;;;3.75;92.74;98983.75;5113916;28;20043;-76
2023/12/11 09:47:47;;;;;;;0.57;0.57;;;;;;;3.71;92.85;98974.44;5115252;28;20062;-75
2023/12/11 09:50:21;;;;;;;3.90;1.75;;;;;;;3.67;92.16;98984.47;5114788;28;20071;-75
2023/12/11 09:52:52;;;;;;;2.70;2.45;;;;;;;3.70;92.34;98985.34;5114936;28;20059;-76
2023/12/11 09:55:20;;;;;;;1.13;1.08;;;;;;;3.67;92.05;98989.50;5114897;28;20396;-77
2023/12/11 09:57:51;;;;;;;1.25;1.15;;;;;;;3.64;92.18;98990.31;5115081;28;20038;-77
2023/12/11 10:00:22;;;;;;;2.40;2.20;;;;;;;3.63;91.72;98988.59;5113788;28;20048;-76
2023/12/11 10:02:52;;;;;;;2.85;2.65;;;;;;;3.60;91.41;98972.59;5113675;28;20040;-76
2023/12/11 10:05:26;;;;;;;2.45;2.20;;;;;;;3.55;91.20;98975.00;5113599;28;20051;-76
2023/12/11 10:07:55;;;;;;;2.38;2.17;;;;;;;3.37;91.70;98941.94;5114596;28;20039;-78
2023/12/11 10:10:27;;;;;;;1.20;1.10;;;;;;;3.49;91.23;98969.88;5114423;28;20040;-75
2023/12/11 10:12:56;;;;;;;3.92;3.55;;;;;;;3.43;91.27;98953.81;5112787;28;20058;-77
2023/12/11 10:15:28;;;;;;;1.23;1.13;;;;;;;3.43;91.07;98954.69;5114399;28;20040;-75
2023/12/11 10:18:06;;;;;;;1.35;1.25;;;;;;;3.36;91.22;98955.38;5114704;28;20062;-74
2023/12/11 10:20:36;;;;;;;7.82;4.03;;;;;;;3.24;90.79;98938.38;5114515;28;20044;-77
2023/12/11 10:23:14;;;;;;;2.08;1.88;;;;;;;3.34;91.01;98954.50;5113188;28;20093;-77
2023/12/11 10:25:46;;;;;;;1.45;1.35;;;;;;;3.31;90.90;98954.47;5114318;28;20478;-74
2023/12/11 10:28:16;;;;;;;3.17;2.40;;;;;;;3.26;91.11;98951.03;5114599;28;20231;-74
2023/12/11 10:30:54;;;;;;;1.48;1.33;;;;;;;3.24;91.22;98942.56;5112802;28;20079;-75
2023/12/11 10:33:30;;;;;;;5.60;5.18;;;;;;;3.35;91.31;98946.13;5113972;28;20097;-74
2023/12/11 10:36:12;;;;;;;10.20;2.67;;;;;;;3.40;91.00;98934.44;5114321;28;20134;-76
2023/12/11 10:38:41;;;;;;;1.92;1.77;;;;;;;3.46;90.99;98934.53;5112992;28;20051;-76
2023/12/11 10:41:24;;;;;;;2.00;1.85;;;;;;;3.55;91.48;98937.19;5113922;28;20058;-77
2023/12/11 10:43:53;;;;;;;6.78;2.35;;;;;;;3.59;91.42;98931.38;5114574;28;20043;-74
2023/12/11 10:46:44;;;;;;;3.72;3.35;;;;;;;3.65;91.10;98923.88;5114606;28;20044;-78
2023/12/11 10:49:13;;;;;;;3.08;2.75;;;;;;;3.71;91.37;98916.41;5114005;28;20051;-76
2023/12/11 10:51:42;;;;;;;;;;;;;;;3.82;91.04;98919.91;5114726;28;20508;-76
2023/12/11 10:54:11;;;;;;;2.25;2.15;;;;;;;4.05;91.33;98927.81;5114153;28;20018;-75
2023/12/11 10:56:43;;;;;;;1.65;1.55;;;;;;;4.35;90.74;98933.22;5114021;28;20048;-76
2023/12/11 10:59:13;;;;;;;2.85;2.33;;;;;;;4.40;90.91;98931.59;5113218;28;20048;-78
2023/12/11 11:01:50;;;;;;;1.35;1.25;;;;;;;4.33;90.18;98944.13;5115019;28;20448;-77
2023/12/11 11:04:21;;;;;;;0.68;0.68;;;;;;;4.29;89.66;98934.84;5114548;28;20048;-77
2023/12/11 11:06:57;;;;;;;5.63;2.55;;;;;;;4.27;89.42;98934.78;5114225;28;20048;-78
2023/12/11 11:09:43;;;;;;;2.47;2.28;;;;;;;4.14;89.08;98912.75;5114807;28;20055;-79
2023/12/11 11:12:24;;;;;;;1.48;1.38;;;;;;;4.40;89.29;98915.59;5111286;28;20050;-76
2023/12/11 11:14:54;;;;;;;0.73;0.73;;;;;;;4.43;89.16;98920.69;5114148;28;20044;-76
2023/12/11 11:17:24;;;;;;;5.50;3.92;;;;;;;4.48;88.94;98903.91;5113688;28;20490;-77
2023/12/11 11:20:09;;;;;;;2.05;1.95;;;;;;;4.66;88.83;98904.06;5096042;28;20047;-78
2023/12/11 11:22:38;;;;;;;4.30;2.42;;;;;;;4.92;88.57;98901.81;5116280;28;20129;-79
2023/12/11 11:25:31;;;;;;;3.35;3.05;;;;;;;5.09;88.17;98892.66;5118379;28;20050;-77
2023/12/11 11:28:00;;;;;;;3.13;2.13;;;;;;;4.67;87.92;98840.94;5117618;28;20422;-77
2023/12/11 11:30:55;;;;;;;1.13;1.05;;;;;;;5.12;86.95;98906.19;5117921;28;20066;-76
2023/12/11 11:33:43;;;;;;;1.80;1.70;;;;;;;5.36;87.38;98898.81;5117770;28;20059;-77
2023/12/11 11:36:15;;;;;;;3.20;2.88;;;;;;;5.69;87.01;98894.78;5116525;28;20039;-76
2023/12/11 11:38:56;;;;;;;1.90;1.75;;;;;;;5.84;86.53;98894.88;5117560;28;20059;-77
2023/12/11 11:41:27;;;;;;;3.60;3.13;;;;;;;5.84;86.44;98890.69;5117644;28;20520;-77
2023/12/11 11:44:03;;;;;;;2.78;2.58;;;;;;;5.79;85.59;98886.41;5117456;28;20396;-76
2023/12/11 11:46:51;;;;;;;4.10;3.05;;;;;;;5.87;85.32;98879.75;5116317;28;20063;-78
2023/12/11 11:49:33;;;;;;;4.57;3.63;;;;;;;5.86;84.85;98883.09;5117563;28;20047;-78
2023/12/11 11:52:09;;;;;;;2.67;2.47;;;;;;;5.83;83.57;98872.94;5116212;28;20040;-76
2023/12/11 11:54:41;;;;;;;7.22;3.63;;;;;;;5.84;83.29;98885.63;5116189;28;20542;-75
2023/12/11 11:57:14;;;;;;;5.03;2.85;;;;;;;5.66;82.68;98899.84;5099124;28;20047;-76
2023/12/11 11:59:43;;;;;;;0.70;0.70;;;;;;;5.57;83.04;98899.78;5117111;28;20065;-77